createdAt,value
2019-05-20T00:00:18.047Z,99848.89
2019-05-20T00:02:47.532Z,99846.06
2019-05-20T00:05:17.081Z,99845.83
2019-05-20T00:07:46.564Z,99840.65
2019-05-20T00:10:16.076Z,99842.77
2019-05-20T00:12:45.573Z,99834.91
2019-05-20T00:15:15.177Z,99838.64
2019-05-20T00:17:44.705Z,99834.98
2019-05-20T00:20:14.292Z,99838.66
2019-05-20T00:22:43.816Z,99836.06
2019-05-20T00:25:13.406Z,99835.19
2019-05-20T00:27:42.917Z,99840.45
2019-05-20T00:30:12.866Z,99844.33
2019-05-20T00:32:42.677Z,99842.81
2019-05-20T00:35:12.253Z,99836.30
2019-05-20T00:37:42.733Z,99833.61
2019-05-20T00:40:12.364Z,99834.95
2019-05-20T00:42:41.854Z,99847.58
2019-05-20T00:45:11.778Z,99847.16
2019-05-20T00:47:41.294Z,99845.00
2019-05-20T00:50:10.897Z,99846.64
2019-05-20T00:52:40.480Z,99843.85
2019-05-20T00:55:26.825Z,99838.28
2019-05-20T00:57:56.352Z,99834.48
2019-05-20T01:00:25.943Z,99834.52
2019-05-20T01:02:57.303Z,99835.02
2019-05-20T01:05:26.694Z,99844.28
2019-05-20T01:07:56.195Z,99849.80
2019-05-20T01:10:25.721Z,99853.27
2019-05-20T01:12:56.200Z,99858.34
2019-05-20T01:15:26.401Z,99856.17
2019-05-20T01:17:55.922Z,99853.69
2019-05-20T01:20:25.477Z,99850.13
2019-05-20T01:22:54.956Z,99848.70
2019-05-20T01:25:25.451Z,99844.38
2019-05-20T01:27:54.966Z,99847.73
2019-05-20T01:30:24.935Z,99849.22
2019-05-20T01:32:54.458Z,99856.40
2019-05-20T01:35:23.956Z,99854.90
2019-05-20T01:37:53.485Z,99855.96
2019-05-20T01:40:22.992Z,99857.34
2019-05-20T01:42:52.524Z,99850.59
2019-05-20T01:45:22.050Z,99846.20
2019-05-20T01:47:51.593Z,99849.09
2019-05-20T01:50:21.093Z,99852.94
2019-05-20T01:52:50.602Z,99854.25
2019-05-20T01:55:20.145Z,99852.19
2019-05-20T01:57:49.663Z,99847.67
2019-05-20T02:00:19.447Z,99851.56
2019-05-20T02:02:48.957Z,99848.05
2019-05-20T02:05:18.567Z,99858.02
2019-05-20T02:07:48.074Z,99858.02
2019-05-20T02:10:17.595Z,99854.14
2019-05-20T02:12:47.101Z,99857.94
2019-05-20T02:15:40.557Z,99850.13
2019-05-20T02:18:10.105Z,99848.78
2019-05-20T02:20:39.639Z,99840.30
2019-05-20T02:23:15.734Z,99850.66
2019-05-20T02:25:49.698Z,99847.18
2019-05-20T02:28:20.215Z,99850.64
2019-05-20T02:30:49.744Z,99844.19
2019-05-20T02:33:19.253Z,99851.48
2019-05-20T02:35:48.772Z,99845.89
2019-05-20T02:38:18.299Z,99850.09
2019-05-20T02:40:47.811Z,99852.09
2019-05-20T02:43:17.423Z,99844.96
2019-05-20T02:45:46.949Z,99837.22
2019-05-20T02:48:16.534Z,99839.64
2019-05-20T02:50:46.048Z,99842.33
2019-05-20T02:53:15.563Z,99846.22
2019-05-20T02:55:45.092Z,99841.91
2019-05-20T02:58:14.611Z,99842.91
2019-05-20T03:00:44.182Z,99846.31
2019-05-20T03:03:14.246Z,99848.77
2019-05-20T03:05:43.922Z,99845.36
2019-05-20T03:08:13.451Z,99843.83
2019-05-20T03:10:42.962Z,99850.64
2019-05-20T03:13:12.473Z,99856.44
2019-05-20T03:15:41.973Z,99857.72
2019-05-20T03:18:11.503Z,99860.06
2019-05-20T03:20:41.007Z,99867.81
2019-05-20T03:23:10.532Z,99863.91
2019-05-20T03:25:40.073Z,99871.11
2019-05-20T03:28:09.876Z,99872.21
2019-05-20T03:30:39.455Z,99801.61
2019-05-20T03:33:09.091Z,99859.64
2019-05-20T03:35:39.607Z,99861.42
2019-05-20T03:38:10.170Z,99864.06
2019-05-20T03:40:39.706Z,99872.11
2019-05-20T03:43:09.219Z,99861.73
2019-05-20T03:45:38.753Z,99858.81
2019-05-20T03:48:08.283Z,99818.84
2019-05-20T03:50:37.820Z,99857.06
2019-05-20T03:53:07.337Z,99861.37
2019-05-20T03:55:36.842Z,99869.75
2019-05-20T03:58:06.365Z,99877.86
2019-05-20T04:00:44.447Z,99872.20
2019-05-20T04:03:14.794Z,99881.22
2019-05-20T04:05:44.523Z,99875.84
2019-05-20T04:08:14.041Z,99871.78
2019-05-20T04:10:43.543Z,99879.59
2019-05-20T04:13:13.063Z,99882.88
2019-05-20T04:15:42.580Z,99877.40
2019-05-20T04:18:12.312Z,99876.45
2019-05-20T04:20:41.837Z,99886.67
2019-05-20T04:23:11.383Z,99880.75
2019-05-20T04:25:40.880Z,99883.48
2019-05-20T04:28:10.405Z,99882.09
2019-05-20T04:30:39.955Z,99877.21
2019-05-20T04:33:09.465Z,99881.84
2019-05-20T04:35:39.997Z,99881.24
2019-05-20T04:38:09.518Z,99887.59
2019-05-20T04:40:39.026Z,99882.88
2019-05-20T04:43:08.554Z,99874.80
2019-05-20T04:45:38.091Z,99876.19
2019-05-20T04:48:07.620Z,99875.57
2019-05-20T04:50:37.124Z,99871.79
2019-05-20T04:53:06.625Z,99867.45
2019-05-20T04:55:36.147Z,99874.73
2019-05-20T04:58:05.658Z,99871.74
2019-05-20T05:00:53.642Z,99874.22
2019-05-20T05:03:23.785Z,99873.94
2019-05-20T05:05:53.288Z,99878.23
2019-05-20T05:08:23.087Z,99891.90
2019-05-20T05:10:52.694Z,99902.17
2019-05-20T05:13:22.782Z,99900.80
2019-05-20T05:15:52.307Z,99901.69
2019-05-20T05:18:22.189Z,99899.85
2019-05-20T05:20:51.764Z,99893.00
2019-05-20T05:23:21.690Z,99902.05
2019-05-20T05:25:51.191Z,99904.95
2019-05-20T05:28:20.789Z,99901.48
2019-05-20T05:30:50.376Z,99903.54
2019-05-20T05:33:19.913Z,99905.27
2019-05-20T05:35:53.123Z,99904.28
2019-05-20T05:38:20.918Z,99905.25
2019-05-20T05:40:50.430Z,99912.88
2019-05-20T05:43:19.944Z,99914.00
2019-05-20T05:45:49.464Z,99917.88
2019-05-20T05:48:18.960Z,99912.14
2019-05-20T05:50:48.474Z,99916.40
2019-05-20T05:53:17.981Z,99918.50
2019-05-20T05:55:47.481Z,99912.85
2019-05-20T05:58:16.978Z,99911.20
2019-05-20T06:00:46.482Z,99907.70
2019-05-20T06:03:15.992Z,99911.03
2019-05-20T06:05:45.500Z,99922.71
2019-05-20T06:08:15.993Z,99927.87
2019-05-20T06:10:45.492Z,99913.94
2019-05-20T06:13:15.073Z,99911.11
2019-05-20T06:15:44.560Z,99914.45
2019-05-20T06:18:14.137Z,99917.33
2019-05-20T06:20:43.647Z,99922.41
2019-05-20T06:23:13.177Z,99930.90
2019-05-20T06:25:42.681Z,99928.09
2019-05-20T06:28:12.210Z,99939.79
2019-05-20T06:30:43.921Z,99943.66
2019-05-20T06:33:13.532Z,99939.59
2019-05-20T06:35:43.324Z,99942.83
2019-05-20T06:38:34.884Z,99947.02
2019-05-20T06:41:04.983Z,99948.28
2019-05-20T06:43:34.510Z,99947.03
2019-05-20T06:46:04.111Z,99951.72
2019-05-20T06:48:33.607Z,99953.58
2019-05-20T06:51:03.118Z,99947.00
2019-05-20T06:53:32.617Z,99948.80
2019-05-20T06:56:02.131Z,99950.89
2019-05-20T06:58:31.640Z,99948.55
2019-05-20T07:01:01.137Z,99945.86
2019-05-20T07:03:30.644Z,99947.23
2019-05-20T07:06:00.229Z,99955.87
2019-05-20T07:08:29.743Z,99953.79
2019-05-20T07:10:59.283Z,99958.41
2019-05-20T07:13:29.098Z,99962.53
2019-05-20T07:15:58.635Z,99951.18
2019-05-20T07:18:28.125Z,99950.64
2019-05-20T07:20:57.643Z,99953.00
2019-05-20T07:23:27.154Z,99953.42
2019-05-20T07:25:56.652Z,99955.04
2019-05-20T07:28:26.148Z,99960.73
2019-05-20T07:30:55.703Z,99968.95
2019-05-20T07:33:25.201Z,99958.42
2019-05-20T07:35:54.755Z,99963.30
2019-05-20T07:38:24.357Z,99971.72
2019-05-20T07:40:53.868Z,99967.70
2019-05-20T07:43:23.377Z,99969.96
2019-05-20T07:45:52.972Z,99972.77
2019-05-20T07:48:22.595Z,99973.40
2019-05-20T07:50:52.626Z,99974.05
2019-05-20T07:53:22.293Z,99973.02
2019-05-20T07:55:59.952Z,99974.38
2019-05-20T07:58:33.634Z,99971.36
2019-05-20T08:01:02.080Z,99973.99
2019-05-20T08:03:31.673Z,99977.34
2019-05-20T08:06:01.180Z,99975.85
2019-05-20T08:08:30.710Z,99971.86
2019-05-20T08:11:00.256Z,99968.69
2019-05-20T08:13:29.839Z,99974.41
2019-05-20T08:16:00.322Z,99974.12
2019-05-20T08:18:29.896Z,99975.39
2019-05-20T08:20:59.548Z,99984.58
2019-05-20T08:23:29.121Z,99979.81
2019-05-20T08:25:58.790Z,99980.28
2019-05-20T08:28:28.317Z,99979.14
2019-05-20T08:30:58.050Z,99978.98
2019-05-20T08:33:27.666Z,99980.69
2019-05-20T08:35:57.242Z,99974.25
2019-05-20T08:38:26.748Z,99976.33
2019-05-20T08:40:56.338Z,99968.56
2019-05-20T08:43:25.896Z,99971.77
2019-05-20T08:45:55.510Z,99971.35
2019-05-20T08:48:26.747Z,99978.02
2019-05-20T08:50:56.270Z,99978.14
2019-05-20T08:53:26.868Z,99968.68
2019-05-20T08:55:56.426Z,99932.92
2019-05-20T08:58:25.966Z,99980.04
2019-05-20T09:00:55.643Z,99979.05
2019-05-20T09:03:30.348Z,99975.64
2019-05-20T09:05:56.674Z,99976.64
2019-05-20T09:08:26.219Z,99982.30
2019-05-20T09:10:55.768Z,99978.63
2019-05-20T09:13:27.205Z,99978.59
2019-05-20T09:15:56.766Z,99975.69
2019-05-20T09:18:26.301Z,99979.88
2019-05-20T09:20:57.530Z,99982.44
2019-05-20T09:23:27.102Z,99979.09
2019-05-20T09:25:56.634Z,99986.84
2019-05-20T09:28:26.384Z,99983.02
2019-05-20T09:30:56.100Z,99981.32
2019-05-20T09:33:25.896Z,99873.57
2019-05-20T09:35:57.864Z,99982.00
2019-05-20T09:38:27.621Z,99977.95
2019-05-20T09:40:57.107Z,99981.41
2019-05-20T09:43:26.625Z,99976.35
2019-05-20T09:46:07.835Z,99978.84
2019-05-20T09:48:30.766Z,99977.09
2019-05-20T09:51:00.317Z,99974.05
2019-05-20T09:53:29.831Z,99974.41
2019-05-20T09:55:59.337Z,99974.84
2019-05-20T09:58:28.858Z,99967.45
2019-05-20T10:00:58.438Z,99975.83
2019-05-20T10:03:27.956Z,99975.52
2019-05-20T10:05:57.459Z,99978.86
2019-05-20T10:08:37.665Z,99973.75
2019-05-20T10:10:59.812Z,99969.03
2019-05-20T10:13:29.464Z,99956.88
2019-05-20T10:15:59.019Z,99962.55
2019-05-20T10:18:37.408Z,99959.28
2019-05-20T10:20:59.823Z,99970.71
2019-05-20T10:23:29.378Z,99964.48
2019-05-20T10:25:58.967Z,99965.98
2019-05-20T10:28:28.543Z,99963.16
2019-05-20T10:30:58.076Z,99956.80
2019-05-20T10:35:55.937Z,99957.87
2019-05-20T10:38:26.517Z,99948.88
2019-05-20T10:40:56.143Z,99947.27
2019-05-20T10:43:25.749Z,99964.80
2019-05-20T10:45:55.292Z,99962.77
2019-05-20T10:48:24.880Z,99962.33
2019-05-20T10:50:57.980Z,99960.98
2019-05-20T10:53:28.434Z,99955.44
2019-05-20T10:55:58.815Z,99953.05
2019-05-20T10:58:28.542Z,99956.59
2019-05-20T11:01:03.531Z,99959.02
2019-05-20T11:03:29.442Z,99950.52
2019-05-20T11:05:58.990Z,99954.80
2019-05-20T11:08:28.540Z,99948.55
2019-05-20T11:10:58.077Z,99948.56
2019-05-20T11:13:27.677Z,99944.73
2019-05-20T11:15:57.267Z,99940.35
2019-05-20T11:18:26.781Z,99938.21
2019-05-20T11:20:56.791Z,99938.77
2019-05-20T11:23:26.407Z,99942.06
2019-05-20T11:25:55.945Z,99939.11
2019-05-20T11:28:25.466Z,99942.73
2019-05-20T11:30:55.027Z,99934.20
2019-05-20T11:33:24.571Z,99936.27
2019-05-20T11:35:54.158Z,99930.49
2019-05-20T11:38:23.675Z,99923.63
2019-05-20T11:40:53.179Z,99930.31
2019-05-20T11:43:22.736Z,99929.27
2019-05-20T11:45:52.282Z,99919.88
2019-05-20T11:48:22.831Z,99920.80
2019-05-20T11:50:52.524Z,99915.35
2019-05-20T11:53:22.157Z,99915.43
2019-05-20T11:55:51.848Z,99918.41
2019-05-20T11:58:21.341Z,99916.22
2019-05-20T12:00:50.900Z,99915.45
2019-05-20T12:03:20.454Z,99908.87
2019-05-20T12:05:50.060Z,99912.30
2019-05-20T12:08:19.780Z,99917.27
2019-05-20T12:10:49.301Z,99880.56
2019-05-20T12:13:18.827Z,99919.35
2019-05-20T12:15:48.347Z,99926.34
2019-05-20T12:18:17.894Z,99916.61
2019-05-20T12:20:47.394Z,99917.16
2019-05-20T12:23:16.917Z,99917.77
2019-05-20T12:25:46.489Z,99914.52
2019-05-20T12:28:15.965Z,99913.80
2019-05-20T12:30:45.484Z,99906.84
2019-05-20T12:33:19.092Z,99904.13
2019-05-20T12:35:48.322Z,99898.89
2019-05-20T12:38:17.877Z,99887.73
2019-05-20T12:40:48.258Z,99883.75
2019-05-20T12:43:19.152Z,99879.33
2019-05-20T12:45:48.669Z,99879.94
2019-05-20T12:48:18.241Z,99874.22
2019-05-20T12:50:47.753Z,99813.41
2019-05-20T12:53:17.535Z,99867.48
2019-05-20T12:55:47.080Z,99860.83
2019-05-20T12:58:16.811Z,99859.05
2019-05-20T13:00:46.352Z,99857.63
2019-05-20T13:03:15.877Z,99852.14
2019-05-20T13:05:45.397Z,99843.13
2019-05-20T13:08:14.937Z,99834.59
2019-05-20T13:10:44.432Z,99843.08
2019-05-20T13:13:13.956Z,99834.27
2019-05-20T13:15:43.482Z,99834.27
2019-05-20T13:18:12.995Z,99833.02
2019-05-20T13:20:42.620Z,99841.42
2019-05-20T13:23:14.231Z,99842.28
2019-05-20T13:25:43.465Z,99834.84
2019-05-20T13:28:13.009Z,99831.72
2019-05-20T13:30:42.558Z,99832.02
2019-05-20T13:33:12.078Z,99832.14
2019-05-20T13:35:41.639Z,99833.34
2019-05-20T13:38:11.197Z,99829.59
2019-05-20T13:40:46.303Z,99745.47
2019-05-20T13:43:12.006Z,99826.03
2019-05-20T13:45:42.519Z,99827.57
2019-05-20T13:48:12.019Z,99820.47
2019-05-20T13:50:41.544Z,99818.14
2019-05-20T13:53:11.085Z,99815.98
2019-05-20T13:55:40.608Z,99808.20
2019-05-20T13:58:10.128Z,99807.66
2019-05-20T14:00:39.650Z,99804.29
2019-05-20T14:03:09.236Z,99806.89
2019-05-20T14:05:38.797Z,99807.41
2019-05-20T14:08:08.459Z,99808.29
2019-05-20T14:10:37.951Z,99808.29
2019-05-20T14:13:07.559Z,99802.52
2019-05-20T14:15:38.158Z,99795.97
2019-05-20T14:18:07.727Z,99797.85
2019-05-20T14:20:37.256Z,99795.98
2019-05-20T14:23:06.765Z,99792.92
2019-05-20T14:25:36.303Z,99797.13
2019-05-20T14:28:05.824Z,99785.03
2019-05-20T14:30:35.399Z,99778.05
2019-05-20T14:33:04.959Z,99764.20
2019-05-20T14:35:34.471Z,99764.53
2019-05-20T14:38:04.000Z,99775.77
2019-05-20T14:40:34.120Z,99768.19
2019-05-20T14:43:04.607Z,99763.03
2019-05-20T14:45:34.171Z,99772.16
2019-05-20T14:48:03.793Z,99778.07
2019-05-20T14:50:33.440Z,99779.48
2019-05-20T14:53:02.970Z,99774.86
2019-05-20T14:55:41.810Z,99772.01
2019-05-20T14:58:03.773Z,99772.81
2019-05-20T15:00:33.370Z,99765.73
2019-05-20T15:03:02.897Z,99763.53
2019-05-20T15:05:32.469Z,99767.38
2019-05-20T15:08:01.970Z,99754.65
2019-05-20T15:10:31.497Z,99750.20
2019-05-20T15:13:01.002Z,99745.54
2019-05-20T15:15:30.806Z,99740.26
2019-05-20T15:18:00.320Z,99752.13
2019-05-20T15:20:29.896Z,99752.59
2019-05-20T15:22:59.399Z,99765.46
2019-05-20T15:25:28.935Z,99778.63
2019-05-20T15:27:58.464Z,99792.86
2019-05-20T15:30:28.000Z,99804.98
2019-05-20T15:32:57.524Z,99810.21
2019-05-20T15:35:27.040Z,99801.20
2019-05-20T15:37:56.662Z,99802.27
2019-05-20T15:40:27.137Z,99802.50
2019-05-20T15:42:56.659Z,99786.77
2019-05-20T15:45:26.210Z,99798.44
2019-05-20T15:47:55.719Z,99806.36
2019-05-20T15:50:25.278Z,99807.14
2019-05-20T15:52:55.041Z,99804.20
2019-05-20T15:55:24.594Z,99789.82
2019-05-20T15:57:54.132Z,99787.37
2019-05-20T16:00:23.766Z,99775.83
2019-05-20T16:02:53.322Z,99776.16
2019-05-20T16:05:22.871Z,99771.82
2019-05-20T16:07:52.396Z,99763.88
2019-05-20T16:10:22.823Z,99767.86
2019-05-20T16:12:52.349Z,99768.14
2019-05-20T16:15:21.960Z,99765.86
2019-05-20T16:17:51.513Z,99760.75
2019-05-20T16:20:21.155Z,99762.73
2019-05-20T16:22:50.713Z,99762.83
2019-05-20T16:25:20.307Z,99764.05
2019-05-20T16:27:50.120Z,99768.55
2019-05-20T16:30:23.461Z,99765.88
2019-05-20T16:32:53.016Z,99767.48
2019-05-20T16:35:22.535Z,99771.16
2019-05-20T16:37:53.686Z,99773.67
2019-05-20T16:40:23.264Z,99772.55
2019-05-20T16:42:53.176Z,99788.34
2019-05-20T16:45:22.808Z,99786.34
2019-05-20T16:47:52.348Z,99792.02
2019-05-20T16:50:21.941Z,99788.08
2019-05-20T16:52:51.527Z,99785.02
2019-05-20T16:55:21.066Z,99789.54
2019-05-20T16:57:50.768Z,99789.70
2019-05-20T17:00:31.371Z,99794.14
2019-05-20T17:02:51.711Z,99798.69
2019-05-20T17:05:21.223Z,99801.97
2019-05-20T17:07:50.809Z,99802.53
2019-05-20T17:10:20.322Z,99811.79
2019-05-20T17:12:49.849Z,99808.20
2019-05-20T17:15:20.270Z,99809.73
2019-05-20T17:17:49.808Z,99781.20
2019-05-20T17:20:19.324Z,99813.31
2019-05-20T17:22:48.846Z,99815.63
2019-05-20T17:25:19.450Z,99815.01
2019-05-20T17:27:48.967Z,99821.59
2019-05-20T17:30:18.573Z,99820.28
2019-05-20T17:32:48.091Z,99821.53
2019-05-20T17:35:17.766Z,99827.23
2019-05-20T17:37:47.312Z,99826.80
2019-05-20T17:40:19.272Z,99826.58
2019-05-20T17:42:48.887Z,99829.05
2019-05-20T17:45:20.517Z,99826.34
2019-05-20T17:47:50.727Z,99829.25
2019-05-20T17:50:20.519Z,99822.75
2019-05-20T17:52:50.277Z,99826.45
2019-05-20T17:55:19.986Z,99823.66
2019-05-20T17:57:49.496Z,99827.66
2019-05-20T18:00:25.209Z,99821.66
2019-05-20T18:02:58.740Z,99818.61
2019-05-20T18:05:33.089Z,99822.58
2019-05-20T18:08:06.473Z,99826.20
2019-05-20T18:10:39.060Z,99826.86
2019-05-20T18:13:08.603Z,99823.16
2019-05-20T18:15:38.114Z,99821.45
2019-05-20T18:18:09.671Z,99821.50
2019-05-20T18:20:39.287Z,99816.80
2019-05-20T18:23:08.816Z,99819.05
2019-05-20T18:25:38.406Z,99818.72
2019-05-20T18:28:07.980Z,99818.66
2019-05-20T18:30:37.631Z,99828.47
2019-05-20T18:33:07.246Z,99826.15
2019-05-20T18:35:36.751Z,99827.48
2019-05-20T18:38:06.256Z,99826.43
2019-05-20T18:40:36.117Z,99827.11
2019-05-20T18:43:05.685Z,99820.10
2019-05-20T18:45:35.218Z,99839.10
2019-05-20T18:48:04.814Z,99840.23
2019-05-20T18:50:34.355Z,99843.72
2019-05-20T18:53:03.920Z,99840.27
2019-05-20T18:55:34.992Z,99838.00
2019-05-20T18:58:04.731Z,99841.17
2019-05-20T19:00:34.276Z,99844.00
2019-05-20T19:03:03.812Z,99847.34
2019-05-20T19:05:33.313Z,99844.80
2019-05-20T19:08:02.849Z,99844.95
2019-05-20T19:10:32.372Z,99849.78
2019-05-20T19:13:01.899Z,99858.36
2019-05-20T19:15:31.542Z,99858.36
2019-05-20T19:18:01.883Z,99854.77
2019-05-20T19:20:32.375Z,99856.63
2019-05-20T19:23:01.962Z,99855.42
2019-05-20T19:25:37.898Z,99858.52
2019-05-20T19:28:02.868Z,99854.02
2019-05-20T19:30:32.385Z,99854.47
2019-05-20T19:33:01.904Z,99856.53
2019-05-20T19:35:31.434Z,99856.81
2019-05-20T19:38:01.061Z,99855.14
2019-05-20T19:40:30.644Z,99866.97
2019-05-20T19:43:00.171Z,99860.45
2019-05-20T19:45:29.792Z,99861.03
2019-05-20T19:47:59.366Z,99868.29
2019-05-20T19:50:28.923Z,99880.13
2019-05-20T19:52:58.509Z,99880.23
2019-05-20T19:55:28.142Z,99875.17
2019-05-20T19:57:58.106Z,99884.07
2019-05-20T20:00:29.199Z,99886.60
2019-05-20T20:02:58.791Z,99884.80
2019-05-20T20:05:28.355Z,99882.55
2019-05-20T20:07:58.492Z,99884.55
2019-05-20T20:10:28.098Z,99880.15
2019-05-20T20:12:57.729Z,99884.74
2019-05-20T20:15:27.617Z,99882.10
2019-05-20T20:17:57.313Z,99876.64
2019-05-20T20:20:26.873Z,99869.51
2019-05-20T20:22:56.554Z,99866.98
2019-05-20T20:25:26.094Z,99870.83
2019-05-20T20:27:58.587Z,99865.90
2019-05-20T20:30:28.079Z,99877.75
2019-05-20T20:32:57.735Z,99866.83
2019-05-20T20:35:37.646Z,99868.19
2019-05-20T20:37:58.936Z,99864.07
2019-05-20T20:40:28.489Z,99850.17
2019-05-20T20:42:58.153Z,99851.48
2019-05-20T20:45:28.039Z,99871.45
2019-05-20T20:47:57.645Z,99872.04
2019-05-20T20:50:27.329Z,99872.13
2019-05-20T20:52:56.885Z,99855.77
2019-05-20T20:55:26.485Z,99858.83
2019-05-20T20:57:56.004Z,99871.91
2019-05-20T21:00:25.581Z,99870.40
2019-05-20T21:02:55.131Z,99887.38
2019-05-20T21:05:25.617Z,99887.51
2019-05-20T21:07:55.215Z,99890.50
2019-05-20T21:10:24.730Z,99888.34
2019-05-20T21:12:54.302Z,99895.21
2019-05-20T21:15:23.910Z,99894.94
2019-05-20T21:17:53.422Z,99912.42
2019-05-20T21:20:23.000Z,99908.41
2019-05-20T21:22:52.556Z,99908.29
2019-05-20T21:25:25.714Z,99918.88
2019-05-20T21:27:55.236Z,99912.28
2019-05-20T21:30:24.828Z,99926.55
2019-05-20T21:33:08.316Z,99934.40
2019-05-20T21:35:25.607Z,99936.47
2019-05-20T21:37:55.130Z,99943.33
2019-05-20T21:40:24.676Z,99938.52
2019-05-20T21:42:54.142Z,99936.57
2019-05-20T21:45:23.663Z,99948.42
2019-05-20T21:47:53.181Z,99953.47
2019-05-20T21:50:22.693Z,99942.73
2019-05-20T21:52:52.195Z,99941.64
2019-05-20T21:55:22.398Z,99945.09
2019-05-20T21:57:51.906Z,99938.09
2019-05-20T22:00:27.499Z,99933.50
2019-05-20T22:02:58.570Z,99946.11
2019-05-20T22:05:28.089Z,99930.94
2019-05-20T22:07:57.670Z,99934.58
2019-05-20T22:10:27.167Z,99863.70
2019-05-20T22:12:56.668Z,99931.18
2019-05-20T22:15:26.175Z,99925.96
2019-05-20T22:17:55.699Z,99933.82
2019-05-20T22:20:25.200Z,99925.94
2019-05-20T22:23:12.780Z,99910.58
2019-05-20T22:25:42.367Z,99918.28
2019-05-20T22:28:12.957Z,99920.66
2019-05-20T22:30:42.678Z,99913.81
2019-05-20T22:33:12.236Z,99914.02
2019-05-20T22:35:41.738Z,99912.44
2019-05-20T22:38:11.363Z,99911.58
2019-05-20T22:40:40.882Z,99916.16
2019-05-20T22:43:10.380Z,99912.06
2019-05-20T22:45:39.901Z,99914.48
2019-05-20T22:48:09.397Z,99905.66
2019-05-20T22:50:38.902Z,99905.31
2019-05-20T22:53:08.503Z,99898.55
2019-05-20T22:55:38.001Z,99901.13
2019-05-20T22:58:07.513Z,99907.70
2019-05-20T23:00:37.037Z,99900.37
2019-05-20T23:03:06.535Z,99890.02
2019-05-20T23:05:36.047Z,99894.05
2019-05-20T23:08:05.565Z,99886.06
2019-05-20T23:10:35.078Z,99885.50
2019-05-20T23:13:04.571Z,99885.50
2019-05-20T23:15:34.081Z,99888.31
2019-05-20T23:18:03.573Z,99885.20
2019-05-20T23:20:33.089Z,99880.89
2019-05-20T23:23:02.599Z,99881.86
2019-05-20T23:25:32.481Z,99888.64
2019-05-20T23:28:02.974Z,99887.98
2019-05-20T23:30:32.499Z,99883.94
2019-05-20T23:33:02.005Z,99875.43
2019-05-20T23:35:31.510Z,99874.70
2019-05-20T23:38:01.014Z,99879.11
2019-05-20T23:40:30.542Z,99876.69
2019-05-20T23:43:00.030Z,99878.58
2019-05-20T23:45:29.549Z,99873.59
2019-05-20T23:47:59.057Z,99884.39
2019-05-20T23:50:28.557Z,99881.05
2019-05-20T23:52:58.063Z,99883.64
2019-05-20T23:55:27.561Z,99887.17
2019-05-20T23:57:57.060Z,99887.13
